Terminal Aerodrome Forecast
Issued by NWS Duluth, MN

Home | Current Version | Previous Version | Text Only | Print | Product List | Glossary On
Versions: 1 2 3 4 5 6 7 8 9 10 11 12 13 14 15 16 17 18 19 20 21 22 23
000
FTUS43 KDLH 192337
TAFDLH
TAF
KDLH 192337Z 2000/2024 05014G21KT 1 1/2SM -SN BKN025 OVC050
     FM200200 06012G18KT 3SM -SN SCT015 OVC025
     FM200600 07014G23KT 2SM -SN OVC015
     FM201100 06012KT 1SM -SN OVC010
     FM201600 02008KT 3SM -SN OVC015
     FM202000 30011KT 6SM -SN BKN020=

USA.gov is the U.S. government's official web portal to all federal, state and local government web resources and services.